Time;durP1;ratioP1;P1;durP2;ratioP2;P2;SDS_P1;SDS_P2;PMS_P1;PMS_P2;Temp;Humidity;BMP_temperature;BMP_pressure;BME280_temperature;BME280_humidity;BME280_pressure;Samples;Min_cycle;Max_cycle;Signal;HPM_P1;HPM_P2
2022/03/14 00:02:22;;;;;;;3.63;2.40;;;;;;;11.42;62.94;101580.25;6245984;22;20000;-62
2022/03/14 00:04:51;;;;;;;3.60;2.30;;;;;;;11.37;62.95;101577.50;6246130;22;20004;-62
2022/03/14 00:07:17;;;;;;;3.20;2.30;;;;;;;11.36;62.88;101586.31;6245967;22;20333;-62
2022/03/14 00:09:43;;;;;;;2.58;2.08;;;;;;;11.36;63.00;101586.31;6245699;22;20422;-62
2022/03/14 00:12:17;;;;;;;2.92;2.20;;;;;;;11.35;63.41;101587.19;6245817;22;20000;-62
2022/03/14 00:14:43;;;;;;;4.75;2.40;;;;;;;11.32;63.39;101584.47;6245894;22;20000;-62
2022/03/14 00:17:09;;;;;;;3.65;2.47;;;;;;;11.34;63.12;101600.38;6246353;22;20087;-61
2022/03/14 00:19:34;;;;;;;3.47;2.40;;;;;;;11.32;63.26;101588.88;6245840;22;20082;-63
2022/03/14 00:22:01;;;;;;;3.42;2.40;;;;;;;11.31;63.04;101595.03;6246132;22;20431;-62
2022/03/14 00:24:27;;;;;;;3.03;2.40;;;;;;;11.28;63.70;101595.84;6245705;22;20079;-62
2022/03/14 00:26:54;;;;;;;3.58;2.40;;;;;;;11.27;63.88;101599.38;6245696;22;20038;-62
2022/03/14 00:29:21;;;;;;;3.70;2.38;;;;;;;11.27;63.89;101609.94;6245861;22;20004;-62
2022/03/14 00:31:47;;;;;;;3.42;2.33;;;;;;;11.25;64.32;101612.53;6245893;22;20007;-62
2022/03/14 00:34:14;;;;;;;3.42;2.40;;;;;;;11.23;64.29;101624.88;6245821;22;20008;-62
2022/03/14 00:36:42;;;;;;;3.28;2.53;;;;;;;11.24;63.67;101613.41;6245601;23;20000;-61
2022/03/14 00:39:09;;;;;;;3.25;2.40;;;;;;;11.24;64.13;101617.81;6245755;22;20026;-62
2022/03/14 00:41:34;;;;;;;3.67;2.50;;;;;;;11.26;63.73;101621.38;6245659;22;20429;-62
2022/03/14 00:44:00;;;;;;;3.63;2.47;;;;;;;11.24;63.89;101634.56;6245726;22;20007;-62
2022/03/14 00:46:26;;;;;;;3.10;2.53;;;;;;;11.23;63.94;101632.81;6245886;23;20087;-62
2022/03/14 00:48:51;;;;;;;4.97;2.60;;;;;;;11.20;64.08;101630.09;6245817;22;20020;-61
2022/03/14 00:51:16;;;;;;;4.22;2.70;;;;;;;11.21;64.28;101631.84;6243839;23;20095;-62
2022/03/14 00:53:42;;;;;;;3.53;2.58;;;;;;;11.22;64.25;101631.03;6247005;22;20364;-62
2022/03/14 00:56:08;;;;;;;3.88;2.70;;;;;;;11.19;64.70;101640.66;6248416;22;20032;-62
2022/03/14 00:58:34;;;;;;;3.30;2.50;;;;;;;11.17;64.44;101642.34;6250954;22;20007;-61
2022/03/14 01:01:01;;;;;;;4.03;2.53;;;;;;;11.17;64.99;101643.22;6247944;22;20004;-62
2022/03/14 01:03:26;;;;;;;6.25;2.67;;;;;;;11.14;64.64;101652.88;6247763;22;20076;-61
2022/03/14 01:05:52;;;;;;;3.60;2.60;;;;;;;11.11;64.76;101645.75;6247916;22;20091;-62
2022/03/14 01:08:17;;;;;;;3.80;2.80;;;;;;;11.06;65.45;101654.47;6247480;22;20004;-63
2022/03/14 01:10:43;;;;;;;4.32;2.72;;;;;;;11.07;65.78;101657.13;6247545;22;20083;-62
2022/03/14 01:13:11;;;;;;;3.53;2.65;;;;;;;11.02;66.54;101662.31;6247668;22;20000;-62
2022/03/14 01:15:37;;;;;;;3.67;2.80;;;;;;;11.02;66.58;101664.09;6247971;22;20087;-62
2022/03/14 01:18:04;;;;;;;3.90;2.60;;;;;;;10.99;66.51;101662.25;6247630;22;20031;-62
2022/03/14 01:20:30;;;;;;;3.83;2.80;;;;;;;10.98;66.54;101671.06;6247493;22;20001;-62
2022/03/14 01:22:56;;;;;;;4.22;3.10;;;;;;;10.96;66.94;101662.22;6247595;22;20000;-62
2022/03/14 01:25:24;;;;;;;4.10;2.70;;;;;;;10.97;66.72;101663.97;6247372;22;20035;-62
2022/03/14 01:27:54;;;;;;;3.65;2.83;;;;;;;10.99;66.46;101664.00;6247471;22;20049;-62
2022/03/14 01:30:20;;;;;;;5.07;2.90;;;;;;;10.98;66.94;101667.53;6247359;22;20004;-62
2022/03/14 01:32:46;;;;;;;5.90;2.75;;;;;;;10.97;66.84;101668.38;6247346;22;20035;-62
2022/03/14 01:35:12;;;;;;;4.40;2.65;;;;;;;10.96;67.02;101686.00;6247706;22;20000;-62
2022/03/14 01:37:37;;;;;;;4.10;2.70;;;;;;;10.98;66.99;101686.91;6247241;22;20011;-62
2022/03/14 01:40:03;;;;;;;5.85;3.05;;;;;;;10.94;66.97;101687.72;6247248;22;20008;-62
2022/03/14 01:42:29;;;;;;;3.65;2.60;;;;;;;10.92;66.92;101689.44;6247283;22;20000;-63
2022/03/14 01:44:55;;;;;;;4.03;2.70;;;;;;;10.91;66.85;101686.75;6247345;22;20071;-62
2022/03/14 01:47:20;;;;;;;4.25;3.20;;;;;;;10.85;67.18;101684.84;6247441;22;20054;-62
2022/03/14 01:49:48;;;;;;;3.90;2.65;;;;;;;10.85;67.21;101681.31;6247207;22;20030;-62
2022/03/14 01:52:15;;;;;;;4.28;3.03;;;;;;;10.85;67.35;101687.50;6219953;23;20492;-62
2022/03/14 01:54:41;;;;;;;4.57;3.00;;;;;;;10.84;67.64;101692.75;6246977;22;20016;-62
2022/03/14 01:57:08;;;;;;;3.70;2.90;;;;;;;10.82;67.90;101689.19;6247435;22;20004;-62
2022/03/14 01:59:34;;;;;;;4.07;2.80;;;;;;;10.82;67.67;101694.47;6247068;22;20001;-62
2022/03/14 02:02:00;;;;;;;4.07;3.10;;;;;;;10.82;67.33;101700.63;6247100;22;20004;-62
2022/03/14 02:04:26;;;;;;;4.40;2.95;;;;;;;10.85;67.53;101705.13;6246409;22;20007;-62
2022/03/14 02:06:52;;;;;;;6.28;3.08;;;;;;;10.83;67.90;101707.72;6246910;22;20015;-62
2022/03/14 02:09:18;;;;;;;5.15;2.83;;;;;;;10.84;67.82;101708.63;6247932;22;20011;-62
2022/03/14 02:11:56;;;;;;;5.45;3.00;;;;;;;10.78;68.34;101709.34;6247390;22;20027;-62
2022/03/14 02:14:22;;;;;;;4.15;2.90;;;;;;;10.77;68.66;101713.75;6247070;22;20008;-61
2022/03/14 02:16:48;;;;;;;5.32;3.10;;;;;;;10.78;68.35;101714.66;6246982;22;20067;-62
2022/03/14 02:19:13;;;;;;;5.50;2.90;;;;;;;10.75;68.35;101720.78;6245341;23;20457;-61
2022/03/14 02:21:39;;;;;;;4.22;3.15;;;;;;;10.76;68.32;101722.56;6246868;22;20004;-62
2022/03/14 02:24:05;;;;;;;5.47;3.20;;;;;;;10.77;68.67;101720.78;6246945;22;20417;-61
2022/03/14 02:26:40;;;;;;;5.10;3.10;;;;;;;10.72;68.92;101722.44;6246804;22;20453;-62
2022/03/14 02:29:08;;;;;;;4.45;3.00;;;;;;;10.73;68.99;101719.81;6246899;22;20004;-62
2022/03/14 02:31:37;;;;;;;4.10;3.05;;;;;;;10.73;69.21;101730.41;6246808;22;20011;-62
2022/03/14 02:34:07;;;;;;;5.05;3.20;;;;;;;10.70;68.90;101726.78;6247246;22;20028;-62
2022/03/14 02:36:38;;;;;;;4.60;2.90;;;;;;;10.68;69.43;101732.03;6248020;22;20004;-62
2022/03/14 02:39:04;;;;;;;4.35;3.20;;;;;;;10.66;69.64;101731.13;6246873;22;20004;-61
2022/03/14 02:41:31;;;;;;;5.05;3.28;;;;;;;10.64;69.91;101738.09;6246697;22;20077;-61
2022/03/14 02:43:56;;;;;;;4.85;3.55;;;;;;;10.64;69.91;101734.56;6245184;23;20318;-61
2022/03/14 02:46:22;;;;;;;5.80;3.60;;;;;;;10.65;69.52;101733.72;6246852;22;20054;-61
2022/03/14 02:48:47;;;;;;;6.25;3.47;;;;;;;10.62;69.76;101736.25;6246665;22;20478;-62
2022/03/14 02:51:13;;;;;;;4.35;3.30;;;;;;;10.62;69.50;101746.84;6246047;22;20087;-62
2022/03/14 02:53:39;;;;;;;4.32;3.30;;;;;;;10.62;69.15;101752.13;6246557;22;20075;-60
2022/03/14 02:56:05;;;;;;;4.05;3.25;;;;;;;10.63;69.35;101760.13;6246648;22;20436;-61
2022/03/14 02:58:32;;;;;;;4.50;3.38;;;;;;;10.55;69.84;101760.78;6244957;23;20333;-61
2022/03/14 03:01:00;;;;;;;5.35;3.40;;;;;;;10.54;70.05;101765.16;6246339;22;20004;-61
2022/03/14 03:03:27;;;;;;;6.18;3.28;;;;;;;10.52;69.99;101769.50;6246496;22;20008;-62
2022/03/14 03:05:53;;;;;;;6.30;3.22;;;;;;;10.49;70.30;101765.06;6246295;22;20011;-63
2022/03/14 03:08:21;;;;;;;4.30;3.38;;;;;;;10.42;70.35;101768.38;6246638;22;20008;-62
2022/03/14 03:10:47;;;;;;;5.07;3.50;;;;;;;10.39;70.55;101778.88;6246373;22;20333;-62
2022/03/14 03:13:13;;;;;;;4.35;3.30;;;;;;;10.38;70.55;101779.72;6246372;22;20000;-62
2022/03/14 03:15:39;;;;;;;5.82;3.40;;;;;;;10.42;70.62;101796.56;6246118;22;20004;-62
2022/03/14 03:18:06;;;;;;;4.55;3.45;;;;;;;10.43;70.31;101795.69;6246368;22;20000;-62
2022/03/14 03:20:32;;;;;;;3.97;2.92;;;;;;;10.41;70.38;101794.78;6246326;22;20015;-62
2022/03/14 03:22:58;;;;;;;5.93;3.10;;;;;;;10.40;70.47;101808.81;6246145;22;20310;-62
2022/03/14 03:25:23;;;;;;;4.28;3.40;;;;;;;10.39;70.35;101807.03;6246132;22;20004;-61
2022/03/14 03:27:48;;;;;;;4.43;3.30;;;;;;;10.38;70.38;101819.34;6246266;22;20030;-61
2022/03/14 03:30:16;;;;;;;3.85;3.13;;;;;;;10.33;70.29;101818.34;6246141;22;20075;-61
2022/03/14 03:32:42;;;;;;;4.40;3.30;;;;;;;10.28;70.80;101830.53;6246173;22;20004;-61
2022/03/14 03:35:08;;;;;;;4.97;3.30;;;;;;;10.21;71.68;101834.69;6246308;22;20073;-61
2022/03/14 03:37:34;;;;;;;4.50;3.40;;;;;;;10.24;71.89;101849.75;6245916;22;20000;-61
2022/03/14 03:39:59;;;;;;;4.80;3.30;;;;;;;10.14;72.88;101845.03;6246210;22;20008;-61
2022/03/14 03:42:31;;;;;;;4.60;3.47;;;;;;;10.07;73.15;101838.72;6246054;22;20008;-61
2022/03/14 03:44:56;;;;;;;5.03;3.50;;;;;;;10.01;73.44;101857.88;6246106;22;20000;-61
2022/03/14 03:47:22;;;;;;;4.93;3.30;;;;;;;9.98;73.53;101851.66;6246029;22;20054;-61
2022/03/14 03:49:47;;;;;;;4.38;3.05;;;;;;;9.93;73.64;101859.41;6246203;22;20103;-61
2022/03/14 03:52:13;;;;;;;4.65;3.45;;;;;;;9.90;73.47;101861.97;6245778;22;20162;-61
2022/03/14 03:54:38;;;;;;;4.57;3.33;;;;;;;9.88;73.46;101868.94;6246148;22;20004;-61
2022/03/14 03:57:06;;;;;;;4.38;3.30;;;;;;;9.94;72.44;101877.06;6245887;22;20066;-61
2022/03/14 03:59:32;;;;;;;4.97;3.75;;;;;;;9.94;72.88;101878.81;6245933;23;20012;-61
2022/03/14 04:01:57;;;;;;;5.55;3.55;;;;;;;9.94;73.01;101879.69;6246248;23;20405;-61
2022/03/14 04:04:23;;;;;;;5.18;3.88;;;;;;;9.95;73.03;101901.72;6244341;23;20062;-61
2022/03/14 04:06:51;;;;;;;5.45;4.07;;;;;;;9.93;73.30;101893.72;6245700;22;20058;-62
2022/03/14 04:09:17;;;;;;;4.72;3.72;;;;;;;9.88;73.09;101895.34;6244342;23;20012;-61
2022/03/14 04:11:42;;;;;;;4.75;3.42;;;;;;;9.89;73.76;101907.72;6245845;22;20079;-61
2022/03/14 04:14:09;;;;;;;5.95;3.78;;;;;;;9.85;74.21;101911.09;6246004;22;20324;-61
2022/03/14 04:16:36;;;;;;;5.13;3.63;;;;;;;9.83;74.33;101920.72;6245844;22;20004;-61
2022/03/14 04:19:01;;;;;;;5.18;4.22;;;;;;;9.79;74.63;101919.72;6245889;22;20004;-61
2022/03/14 04:21:27;;;;;;;4.95;3.80;;;;;;;9.78;74.66;101927.59;6245879;22;20034;-61
2022/03/14 04:23:53;;;;;;;4.93;4.03;;;;;;;9.74;75.30;101921.31;6245740;22;20079;-61
2022/03/14 04:26:18;;;;;;;5.05;4.00;;;;;;;9.71;75.50;101926.50;6245669;22;20032;-62
2022/03/14 04:28:44;;;;;;;5.97;4.57;;;;;;;9.72;75.52;101930.03;6247187;22;20418;-61
2022/03/14 04:31:09;;;;;;;8.55;4.07;;;;;;;9.70;76.08;101931.72;6247979;22;20046;-61
2022/03/14 04:33:36;;;;;;;7.03;4.00;;;;;;;9.68;75.85;101936.97;6248270;22;20011;-61
2022/03/14 04:36:04;;;;;;;6.20;3.92;;;;;;;9.69;76.06;101951.06;6247920;22;20012;-61
2022/03/14 04:38:30;;;;;;;7.07;4.75;;;;;;;9.58;77.16;101944.53;6247781;22;20004;-61
2022/03/14 04:40:56;;;;;;;5.43;4.35;;;;;;;9.56;76.75;101952.41;6247766;22;20436;-61
2022/03/14 04:43:22;;;;;;;6.53;4.38;;;;;;;9.51;77.11;101959.28;6247951;22;20004;-61
2022/03/14 04:45:48;;;;;;;6.10;4.40;;;;;;;9.49;77.48;101953.03;6247911;22;20008;-61
2022/03/14 04:48:15;;;;;;;7.22;4.70;;;;;;;9.46;77.31;101960.84;6246298;23;20007;-61
2022/03/14 04:50:42;;;;;;;6.80;4.78;;;;;;;9.46;77.45;101966.13;6247673;22;20000;-61
2022/03/14 04:53:08;;;;;;;6.40;4.53;;;;;;;9.41;77.73;101962.44;6247117;22;20016;-61
2022/03/14 04:55:34;;;;;;;7.80;4.78;;;;;;;9.40;77.82;101977.38;6247721;22;20552;-61
2022/03/14 04:58:01;;;;;;;6.57;5.00;;;;;;;9.38;77.59;101979.09;6248047;22;20010;-61
2022/03/14 05:00:28;;;;;;;6.90;4.97;;;;;;;9.38;77.81;101976.44;6247799;22;20004;-61
2022/03/14 05:03:00;;;;;;;7.03;5.20;;;;;;;9.36;77.89;101975.47;6247912;22;20004;-61
2022/03/14 05:05:26;;;;;;;7.15;5.28;;;;;;;9.36;77.11;101993.06;6247642;22;20004;-60
2022/03/14 05:07:51;;;;;;;6.70;4.93;;;;;;;9.32;77.56;101989.41;6247428;22;20376;-61
2022/03/14 05:10:17;;;;;;;8.40;5.63;;;;;;;9.32;77.61;102002.59;6247678;22;20348;-61
2022/03/14 05:12:43;;;;;;;9.90;4.97;;;;;;;9.31;77.81;102002.56;6247532;22;20026;-61
2022/03/14 05:15:09;;;;;;;7.30;5.13;;;;;;;9.31;77.97;102008.72;6247498;23;20035;-61
2022/03/14 05:17:34;;;;;;;7.82;5.60;;;;;;;9.31;78.30;102015.75;6247848;22;20035;-61
2022/03/14 05:20:02;;;;;;;7.95;5.30;;;;;;;9.30;77.88;102021.88;6247532;22;20011;-61
2022/03/14 05:22:28;;;;;;;7.95;5.15;;;;;;;9.28;78.04;102025.31;6247350;22;20072;-61
2022/03/14 05:24:54;;;;;;;7.32;5.15;;;;;;;9.29;77.89;102026.22;6247369;22;20523;-61
2022/03/14 05:27:19;;;;;;;8.27;5.63;;;;;;;9.32;77.26;102025.44;6247393;22;20031;-61
2022/03/14 05:29:47;;;;;;;8.10;5.90;;;;;;;9.29;77.84;102042.03;6247464;22;20044;-61
2022/03/14 05:32:13;;;;;;;7.32;5.57;;;;;;;9.29;77.97;102036.78;6245743;23;20004;-61
2022/03/14 05:34:38;;;;;;;7.55;5.82;;;;;;;9.31;77.14;102037.75;6247340;22;20043;-61
2022/03/14 05:37:04;;;;;;;8.73;6.07;;;;;;;9.28;77.26;102042.91;6247334;22;20049;-61
2022/03/14 05:39:29;;;;;;;9.00;6.05;;;;;;;9.31;77.38;102047.41;6247059;22;20001;-61
2022/03/14 05:41:55;;;;;;;9.63;6.85;;;;;;;9.29;77.08;102055.22;6247347;22;20004;-61
2022/03/14 05:44:21;;;;;;;10.20;6.72;;;;;;;9.25;77.38;102064.81;6247626;22;20011;-61
2022/03/14 05:46:52;;;;;;;10.60;7.45;;;;;;;9.29;76.99;102078.97;6247137;22;20422;-61
2022/03/14 05:49:17;;;;;;;10.15;7.00;;;;;;;9.33;77.43;102079.97;6247300;22;20004;-61
2022/03/14 05:51:42;;;;;;;9.80;7.07;;;;;;;9.35;76.82;102078.31;6246807;22;20531;-61
2022/03/14 05:54:09;;;;;;;14.27;7.93;;;;;;;9.32;76.94;102083.47;6247081;22;20395;-61
2022/03/14 05:56:35;;;;;;;12.52;7.10;;;;;;;9.34;77.24;102095.88;6247169;22;20088;-61
2022/03/14 05:59:00;;;;;;;10.65;7.53;;;;;;;9.34;76.97;102085.34;6247384;22;20023;-61
2022/03/14 06:01:26;;;;;;;12.27;8.02;;;;;;;9.34;77.39;102101.16;6247363;22;20004;-61
2022/03/14 06:03:53;;;;;;;13.32;8.00;;;;;;;9.33;77.45;102103.72;6246970;22;20011;-61
2022/03/14 06:06:18;;;;;;;12.27;8.52;;;;;;;9.31;77.41;102100.16;6246673;22;20440;-61
2022/03/14 06:08:44;;;;;;;13.50;8.85;;;;;;;9.28;77.89;102106.19;6246559;22;20004;-61
2022/03/14 06:11:11;;;;;;;13.20;7.65;;;;;;;9.28;77.47;102104.44;6246743;22;20004;-61
2022/03/14 06:13:37;;;;;;;12.43;8.07;;;;;;;9.32;77.30;102115.13;6246804;22;20090;-61
2022/03/14 06:16:02;;;;;;;13.52;8.13;;;;;;;9.29;77.49;102110.63;6246467;22;20086;-61
2022/03/14 06:18:29;;;;;;;11.52;8.27;;;;;;;9.33;77.38;102114.28;6246252;22;20000;-61
2022/03/14 06:20:58;;;;;;;17.40;8.80;;;;;;;9.34;77.07;102119.63;6246912;22;20444;-61
2022/03/14 06:23:24;;;;;;;15.95;9.02;;;;;;;9.39;77.21;102123.31;6246103;22;20448;-61
2022/03/14 06:25:50;;;;;;;12.80;9.35;;;;;;;9.40;77.44;102137.41;6246308;22;20004;-61
2022/03/14 06:28:16;;;;;;;16.42;9.80;;;;;;;9.38;77.56;102134.72;6246080;22;20011;-61
2022/03/14 06:30:41;;;;;;;12.75;8.77;;;;;;;9.41;76.96;102133.91;6246253;23;20008;-61
2022/03/14 06:33:07;;;;;;;16.42;9.93;;;;;;;9.37;77.31;102147.84;6246173;22;20024;-61
2022/03/14 06:35:33;;;;;;;11.57;8.85;;;;;;;9.39;77.25;102143.53;6245903;22;20004;-61
2022/03/14 06:37:58;;;;;;;15.40;9.50;;;;;;;9.39;77.23;102149.69;6245974;22;20004;-60
2022/03/14 06:40:27;;;;;;;14.32;9.45;;;;;;;9.41;76.71;102150.63;6245993;22;20824;-61
2022/03/14 06:42:53;;;;;;;14.93;9.13;;;;;;;9.42;77.24;102152.47;6245876;22;20321;-61
2022/03/14 06:45:24;;;;;;;14.95;10.13;;;;;;;9.42;77.32;102156.81;6245768;22;20001;-61
2022/03/14 06:47:51;;;;;;;16.50;9.47;;;;;;;9.39;77.25;102162.91;6245815;22;20004;-61
2022/03/14 06:50:17;;;;;;;14.80;10.30;;;;;;;9.36;77.58;102162.78;6245853;22;20027;-61
2022/03/14 06:52:43;;;;;;;14.88;10.30;;;;;;;9.39;77.16;102159.38;6245190;22;20073;-61
2022/03/14 06:55:10;;;;;;;16.02;10.57;;;;;;;9.37;77.53;102167.19;6245703;22;20011;-60
2022/03/14 06:57:36;;;;;;;16.48;10.70;;;;;;;9.37;77.46;102167.19;6245893;22;20000;-61
2022/03/14 07:00:03;;;;;;;16.45;9.85;;;;;;;9.41;77.11;102181.41;6246060;22;20008;-61
2022/03/14 07:02:29;;;;;;;18.67;10.75;;;;;;;9.45;77.47;102181.56;6245641;22;20016;-61
2022/03/14 07:04:54;;;;;;;19.73;10.93;;;;;;;9.46;77.26;102183.41;6245509;22;20004;-61
2022/03/14 07:07:20;;;;;;;14.85;10.25;;;;;;;9.50;77.51;102181.72;6245558;22;20004;-61
2022/03/14 07:09:45;;;;;;;16.88;10.45;;;;;;;9.57;76.89;102185.50;6245576;22;20054;-61
2022/03/14 07:12:12;;;;;;;19.50;10.77;;;;;;;9.56;77.20;102189.91;6245625;22;20501;-61
2022/03/14 07:14:37;;;;;;;15.70;9.85;;;;;;;9.53;77.37;102195.06;6245355;22;20050;-61
2022/03/14 07:17:03;;;;;;;16.90;10.27;;;;;;;9.54;77.61;102195.09;6245459;23;20070;-61
2022/03/14 07:19:28;;;;;;;18.90;9.73;;;;;;;9.60;76.96;102193.56;6245734;22;20000;-61
2022/03/14 07:21:54;;;;;;;17.00;10.02;;;;;;;9.66;76.65;102199.03;6245516;23;20480;-61
2022/03/14 07:24:19;;;;;;;13.52;9.52;;;;;;;9.71;75.96;102200.09;6243750;23;20046;-62
2022/03/14 07:26:46;;;;;;;19.00;10.55;;;;;;;9.74;76.68;102201.09;6245262;22;20302;-60
2022/03/14 07:29:13;;;;;;;15.85;9.23;;;;;;;9.74;76.11;102201.09;6245357;23;20004;-61
2022/03/14 07:31:41;;;;;;;16.40;9.93;;;;;;;9.75;76.24;102202.91;6245490;22;20010;-61
2022/03/14 07:34:07;;;;;;;16.00;9.82;;;;;;;9.76;75.88;102209.06;6245533;22;20071;-61
2022/03/14 07:36:37;;;;;;;16.45;10.25;;;;;;;9.80;75.68;102208.34;6245442;22;20000;-61
2022/03/14 07:39:04;;;;;;;16.10;10.02;;;;;;;9.78;75.61;102202.13;6245470;22;20004;-61
2022/03/14 07:41:30;;;;;;;25.20;11.45;;;;;;;9.81;75.44;102209.22;6245398;22;20004;-61
2022/03/14 07:43:55;;;;;;;21.38;10.43;;;;;;;9.83;75.44;102210.19;6244028;23;20456;-61
2022/03/14 07:46:21;;;;;;;14.10;10.10;;;;;;;9.89;75.40;102202.47;6245239;22;20075;-61
2022/03/14 07:48:46;;;;;;;16.35;10.32;;;;;;;9.92;74.71;102211.41;6243933;23;20057;-61
2022/03/14 07:51:12;;;;;;;17.13;10.13;;;;;;;9.94;74.84;102209.75;6245477;22;20086;-61
2022/03/14 07:53:37;;;;;;;14.80;10.13;;;;;;;9.98;74.40;102216.94;6244861;23;20012;-61
2022/03/14 07:56:03;;;;;;;21.95;11.65;;;;;;;10.03;74.57;102225.00;6245704;23;20004;-61
2022/03/14 07:58:29;;;;;;;18.02;11.27;;;;;;;10.09;74.17;102225.22;6245766;22;20027;-61
2022/03/14 08:00:55;;;;;;;20.13;11.30;;;;;;;10.11;74.20;102234.09;6245312;22;20004;-62
2022/03/14 08:03:21;;;;;;;16.95;10.48;;;;;;;10.14;74.03;102251.78;6245306;22;20520;-61
2022/03/14 08:05:47;;;;;;;21.42;12.05;;;;;;;10.16;73.84;102242.19;6245313;22;20040;-61
2022/03/14 08:08:15;;;;;;;15.25;11.05;;;;;;;10.20;73.82;102244.09;6245655;22;20011;-61
2022/03/14 08:10:41;;;;;;;17.80;10.57;;;;;;;10.23;73.69;102249.47;6245188;22;20004;-61
2022/03/14 08:13:06;;;;;;;16.75;11.27;;;;;;;10.24;73.11;102252.22;6245329;22;20077;-62
2022/03/14 08:15:36;;;;;;;18.10;11.23;;;;;;;10.25;73.50;102261.91;6245343;22;20012;-61
2022/03/14 08:18:05;;;;;;;18.50;10.57;;;;;;;10.28;72.69;102266.44;6245304;22;20274;-61
2022/03/14 08:20:31;;;;;;;16.85;11.77;;;;;;;10.23;73.52;102273.22;6245262;22;20062;-61
2022/03/14 08:22:58;;;;;;;20.02;11.63;;;;;;;10.25;73.52;102275.13;6245315;22;20012;-61
2022/03/14 08:25:24;;;;;;;22.35;12.65;;;;;;;10.25;73.45;102274.22;6244972;22;20026;-61
2022/03/14 08:27:50;;;;;;;21.15;11.27;;;;;;;10.28;73.34;102283.16;6245253;22;20004;-61
2022/03/14 08:30:17;;;;;;;15.80;11.52;;;;;;;10.24;73.67;102283.91;6243504;23;20425;-60
2022/03/14 08:32:44;;;;;;;18.90;11.20;;;;;;;10.24;73.07;102283.91;6245175;22;20004;-61
2022/03/14 08:35:10;;;;;;;21.98;11.60;;;;;;;10.19;73.51;102274.91;6245220;22;20095;-62
2022/03/14 08:37:41;;;;;;;19.80;11.68;;;;;;;10.25;73.04;102290.09;6245625;22;20000;-62
2022/03/14 08:40:11;;;;;;;19.45;11.18;;;;;;;10.31;73.15;102299.97;6245201;22;20410;-62
2022/03/14 08:42:37;;;;;;;17.15;10.77;;;;;;;10.29;73.33;102305.19;6245103;22;20028;-62
2022/03/14 08:45:05;;;;;;;18.92;11.30;;;;;;;10.31;73.57;102313.16;6245196;22;20322;-63
2022/03/14 08:47:32;;;;;;;19.45;10.07;;;;;;;10.34;73.18;102308.91;6245131;22;20031;-61
2022/03/14 08:49:58;;;;;;;18.85;11.02;;;;;;;10.38;72.83;102310.81;6245207;22;20007;-62
2022/03/14 08:52:23;;;;;;;14.65;10.82;;;;;;;10.40;72.56;102314.38;6243960;22;20012;-62
2022/03/14 08:54:49;;;;;;;19.98;10.82;;;;;;;10.43;72.69;102321.53;6244698;23;20019;-62
2022/03/14 08:57:16;;;;;;;19.98;10.35;;;;;;;10.50;72.45;102328.84;6244459;22;20004;-62
2022/03/14 08:59:44;;;;;;;16.65;10.55;;;;;;;10.58;72.10;102323.78;6244600;22;20035;-63
2022/03/14 09:02:10;;;;;;;17.30;10.88;;;;;;;10.66;72.14;102324.97;6244979;22;20016;-62
2022/03/14 09:04:36;;;;;;;17.05;9.32;;;;;;;10.81;71.48;102335.19;6244085;22;20046;-62
2022/03/14 09:07:02;;;;;;;17.10;9.75;;;;;;;10.88;71.19;102332.78;6243092;23;20008;-64
2022/03/14 09:09:27;;;;;;;15.95;9.40;;;;;;;10.97;71.20;102345.41;6244770;22;20448;-61
2022/03/14 09:11:53;;;;;;;15.75;9.45;;;;;;;10.98;70.31;102353.41;6244927;22;20146;-62
2022/03/14 09:14:18;;;;;;;19.77;9.45;;;;;;;10.97;70.43;102348.06;6244843;22;20417;-62
2022/03/14 09:16:44;;;;;;;16.90;8.95;;;;;;;10.98;70.14;102348.09;6246446;22;20329;-62
2022/03/14 09:19:09;;;;;;;12.98;8.65;;;;;;;11.02;70.13;102365.88;6246890;22;20011;-61
2022/03/14 09:21:35;;;;;;;14.35;8.02;;;;;;;11.01;70.22;102358.78;6246792;22;20054;-61
2022/03/14 09:24:00;;;;;;;14.32;8.30;;;;;;;11.06;69.98;102361.59;6246623;22;20000;-61
2022/03/14 09:26:27;;;;;;;12.63;8.52;;;;;;;11.07;70.36;102362.50;6245002;23;20112;-62
2022/03/14 09:28:52;;;;;;;18.33;9.88;;;;;;;11.17;70.69;102367.22;6246992;22;20004;-61
2022/03/14 09:31:17;;;;;;;16.60;8.80;;;;;;;11.34;69.95;102371.31;6246785;22;20000;-61
2022/03/14 09:33:44;;;;;;;14.75;8.88;;;;;;;11.50;69.06;102376.25;6246807;22;20083;-61
2022/03/14 09:36:09;;;;;;;11.57;7.72;;;;;;;11.62;68.64;102375.72;6246824;22;20008;-61
2022/03/14 09:38:35;;;;;;;18.83;7.93;;;;;;;11.79;67.67;102379.78;6246630;22;20314;-62
2022/03/14 09:41:03;;;;;;;12.52;8.18;;;;;;;11.86;67.01;102387.94;6246473;22;20031;-62
2022/03/14 09:43:30;;;;;;;11.85;7.70;;;;;;;11.98;67.27;102396.25;6246676;22;20010;-61
2022/03/14 09:45:58;;;;;;;16.38;7.55;;;;;;;12.11;65.91;102400.19;6246791;22;20000;-61
2022/03/14 09:48:24;;;;;;;13.85;8.00;;;;;;;12.16;65.71;102398.56;6246582;22;20007;-62
2022/03/14 09:50:51;;;;;;;14.40;7.38;;;;;;;12.23;64.86;102400.53;6246956;22;20438;-62
2022/03/14 09:53:18;;;;;;;12.35;7.35;;;;;;;12.30;65.30;102406.94;6247093;22;20310;-62
2022/03/14 09:55:46;;;;;;;14.05;7.85;;;;;;;12.33;65.47;102417.59;6244772;23;20015;-61
2022/03/14 09:58:21;;;;;;;11.35;7.43;;;;;;;12.38;64.83;102427.50;6246501;22;20019;-61
2022/03/14 10:00:49;;;;;;;13.20;6.95;;;;;;;12.43;64.85;102427.63;6246378;22;20425;-61
2022/03/14 10:03:17;;;;;;;13.55;6.88;;;;;;;12.40;63.74;102427.53;6246665;22;20425;-61
2022/03/14 10:05:44;;;;;;;11.23;7.28;;;;;;;12.37;64.33;102435.38;6246009;22;20030;-61
2022/03/14 10:08:11;;;;;;;15.32;6.95;;;;;;;12.32;63.56;102437.00;6244389;23;20008;-62
2022/03/14 10:10:39;;;;;;;12.65;6.40;;;;;;;12.30;64.02;102436.97;6246135;22;20008;-62
2022/03/14 10:13:06;;;;;;;15.50;7.20;;;;;;;12.30;64.42;102439.63;6246551;22;20075;-61
2022/03/14 10:15:40;;;;;;;13.68;7.13;;;;;;;12.37;64.20;102435.38;6246555;22;20007;-61
2022/03/14 10:18:18;;;;;;;15.52;7.22;;;;;;;12.39;63.68;102439.88;6246212;22;20421;-61
2022/03/14 10:21:07;;;;;;;10.73;6.45;;;;;;;12.41;63.27;102437.28;6246082;22;20005;-62
2022/03/14 10:23:43;;;;;;;12.80;7.10;;;;;;;12.43;63.14;102447.09;6246627;22;20004;-61
2022/03/14 10:26:11;;;;;;;11.55;6.18;;;;;;;12.46;62.87;102430.34;6245494;22;20079;-61
2022/03/14 10:28:38;;;;;;;12.32;6.32;;;;;;;12.68;62.67;102453.09;6246470;23;20034;-62
2022/03/14 10:31:11;;;;;;;13.13;6.00;;;;;;;12.79;61.70;102457.81;6245990;22;20004;-61
2022/03/14 10:33:37;;;;;;;15.93;5.68;;;;;;;12.73;60.59;102456.75;6246178;22;20440;-61
2022/03/14 10:36:02;;;;;;;9.15;5.10;;;;;;;12.63;60.55;102465.28;6246115;22;20018;-61
2022/03/14 10:38:28;;;;;;;8.02;5.22;;;;;;;12.64;60.67;102477.72;6246032;22;20079;-60
2022/03/14 10:40:56;;;;;;;13.48;5.50;;;;;;;12.65;60.42;102463.59;6246082;22;20012;-61
2022/03/14 10:43:32;;;;;;;13.48;5.72;;;;;;;12.72;60.71;102477.09;6246044;22;20303;-61
2022/03/14 10:45:59;;;;;;;10.63;6.03;;;;;;;12.84;60.98;102478.25;6245546;22;20011;-62
2022/03/14 10:48:45;;;;;;;12.60;6.25;;;;;;;13.10;59.93;102479.84;6246025;22;20000;-61
2022/03/14 10:51:18;;;;;;;11.45;6.07;;;;;;;13.24;59.59;102488.25;6245562;22;20008;-61
2022/03/14 10:53:46;;;;;;;11.65;6.25;;;;;;;13.35;58.60;102477.88;6245725;22;20020;-62
2022/03/14 10:56:12;;;;;;;11.00;6.80;;;;;;;13.49;58.58;102488.00;6244229;23;20031;-61
2022/03/14 10:58:39;;;;;;;12.70;7.40;;;;;;;13.56;58.17;102489.03;6245687;22;20315;-62
2022/03/14 11:01:09;;;;;;;11.90;7.47;;;;;;;13.57;57.48;102485.53;6244227;23;20011;-61
2022/03/14 11:03:48;;;;;;;10.95;7.75;;;;;;;13.58;57.60;102487.34;6245841;22;20425;-61
2022/03/14 11:06:16;;;;;;;18.17;7.75;;;;;;;13.58;58.02;102491.75;6245812;22;20008;-61
2022/03/14 11:08:47;;;;;;;13.80;6.57;;;;;;;13.84;58.33;102495.94;6245286;22;20303;-62
2022/03/14 11:11:16;;;;;;;11.93;6.10;;;;;;;14.25;56.35;102491.56;6243574;22;20010;-63
2022/03/14 11:13:45;;;;;;;13.23;5.90;;;;;;;14.50;55.37;102501.00;6245453;22;20013;-63
2022/03/14 11:16:20;;;;;;;10.30;5.43;;;;;;;14.85;54.60;102495.47;6245721;22;20008;-64
2022/03/14 11:18:51;;;;;;;8.15;4.82;;;;;;;15.07;53.16;102504.78;6218401;23;20028;-63
2022/03/14 11:21:19;;;;;;;9.50;5.40;;;;;;;15.20;52.59;102495.25;6245490;22;20000;-63